Time;durP1;ratioP1;P1;durP2;ratioP2;P2;SDS_P1;SDS_P2;PMS_P1;PMS_P2;Temp;Humidity;BMP_temperature;BMP_pressure;BME280_temperature;BME280_humidity;BME280_pressure;Samples;Min_cycle;Max_cycle;Signal;HPM_P1;HPM_P2
2021/08/11 00:00:31;;;;;;;7.97;7.28;;;13.30;99.90;;;;;;5019944;28;20065;-63
2021/08/11 00:02:56;;;;;;;8.25;7.45;;;13.30;99.90;;;;;;5015132;28;20083;-63
2021/08/11 00:05:22;;;;;;;8.45;7.50;;;13.30;99.90;;;;;;5018190;28;20037;-63
2021/08/11 00:07:49;;;;;;;8.15;7.35;;;13.20;99.90;;;;;;5048550;28;20129;-63
2021/08/11 00:10:14;;;;;;;7.88;7.18;;;13.30;99.90;;;;;;5016587;28;20038;-63
2021/08/11 00:12:40;;;;;;;7.63;6.85;;;13.20;99.90;;;;;;5019551;28;20091;-63
2021/08/11 00:15:10;;;;;;;7.85;7.13;;;13.20;99.90;;;;;;5019861;28;20134;-63
2021/08/11 00:17:37;;;;;;;7.53;6.82;;;13.20;99.90;;;;;;5024364;28;20053;-63
2021/08/11 00:20:05;;;;;;;13.80;8.35;;;13.20;99.90;;;;;;5026024;28;20040;-63
2021/08/11 00:22:30;;;;;;;9.23;7.72;;;13.20;99.90;;;;;;5043229;28;20044;-63
2021/08/11 00:24:56;;;;;;;7.50;6.80;;;13.10;99.90;;;;;;5022284;28;20029;-63
2021/08/11 00:27:22;;;;;;;7.50;6.80;;;13.10;99.90;;;;;;5031399;28;20036;-63
2021/08/11 00:29:47;;;;;;;7.57;6.85;;;13.10;99.90;;;;;;5018082;28;20042;-63
2021/08/11 00:32:13;;;;;;;7.85;7.07;;;13.10;99.90;;;;;;5022819;28;20074;-64
2021/08/11 00:34:39;;;;;;;7.60;6.60;;;13.10;99.90;;;;;;5008980;28;20111;-63
2021/08/11 00:37:04;;;;;;;6.18;5.68;;;13.00;99.90;;;;;;5028963;28;20459;-63
2021/08/11 00:39:30;;;;;;;6.53;5.93;;;13.00;99.90;;;;;;5013909;28;20479;-63
2021/08/11 00:41:55;;;;;;;6.32;5.72;;;13.00;99.90;;;;;;5012925;28;20034;-63
2021/08/11 00:44:21;;;;;;;5.50;5.10;;;12.90;99.90;;;;;;5021934;28;20475;-63
2021/08/11 00:46:50;;;;;;;5.50;5.10;;;12.90;99.90;;;;;;5033379;28;20127;-63
2021/08/11 00:49:17;;;;;;;6.00;5.03;;;12.90;99.90;;;;;;5045315;28;20049;-63
2021/08/11 00:51:44;;;;;;;5.97;5.47;;;12.90;99.90;;;;;;5016849;28;20046;-63
2021/08/11 00:54:11;;;;;;;5.95;5.32;;;12.90;99.90;;;;;;5017982;28;20045;-63
2021/08/11 00:56:41;;;;;;;6.45;5.85;;;12.90;99.90;;;;;;5021774;28;20121;-63
2021/08/11 00:59:08;;;;;;;6.75;6.13;;;12.90;99.90;;;;;;5025504;28;20100;-63
2021/08/11 01:01:37;;;;;;;7.35;6.50;;;12.90;99.90;;;;;;5027257;28;20042;-63
2021/08/11 01:04:03;;;;;;;8.02;7.07;;;12.80;99.90;;;;;;5012594;28;20087;-63
2021/08/11 01:06:30;;;;;;;7.15;6.55;;;12.80;99.90;;;;;;5037465;28;20038;-63
2021/08/11 01:08:56;;;;;;;9.50;7.68;;;12.80;99.90;;;;;;5020698;28;20065;-63
2021/08/11 01:11:23;;;;;;;8.77;7.97;;;12.80;99.90;;;;;;5019380;28;20431;-63
2021/08/11 01:13:49;;;;;;;9.05;7.55;;;12.80;99.90;;;;;;5010683;28;20490;-63
2021/08/11 01:16:14;;;;;;;9.65;7.43;;;12.80;99.90;;;;;;5012229;28;20137;-63
2021/08/11 01:18:41;;;;;;;8.90;7.85;;;12.70;99.90;;;;;;5012065;28;20046;-63
2021/08/11 01:21:16;;;;;;;10.90;7.75;;;12.70;99.90;;;;;;5041785;28;20037;-63
2021/08/11 01:23:55;;;;;;;9.75;7.93;;;12.70;99.90;;;;;;5009475;28;20042;-63
2021/08/11 01:26:52;;;;;;;9.15;7.78;;;12.70;99.90;;;;;;5026837;28;20037;-63
2021/08/11 01:29:27;;;;;;;8.20;7.40;;;12.70;99.90;;;;;;5018851;28;20478;-63
2021/08/11 01:31:57;;;;;;;7.72;6.93;;;12.70;99.90;;;;;;5029179;28;20024;-63
2021/08/11 01:34:38;;;;;;;7.18;6.57;;;12.60;99.90;;;;;;4985025;28;20074;-63
2021/08/11 01:37:08;;;;;;;9.47;6.83;;;12.60;99.90;;;;;;5024451;28;20060;-63
2021/08/11 01:39:43;;;;;;;7.35;6.63;;;12.60;99.90;;;;;;5036392;28;20041;-63
2021/08/11 01:42:40;;;;;;;7.28;6.55;;;12.60;99.90;;;;;;5007490;28;20050;-63
2021/08/11 01:45:24;;;;;;;7.20;6.55;;;12.50;99.90;;;;;;5036607;28;20050;-63
2021/08/11 01:47:54;;;;;;;7.65;6.47;;;12.60;99.90;;;;;;5025473;28;20137;-63
2021/08/11 01:50:21;;;;;;;7.82;7.05;;;12.50;99.90;;;;;;5047882;28;20048;-63
2021/08/11 01:52:49;;;;;;;7.78;6.78;;;12.50;99.90;;;;;;5015734;28;20069;-63
2021/08/11 01:55:16;;;;;;;8.82;7.10;;;12.50;99.90;;;;;;5032680;28;20057;-63
2021/08/11 01:57:47;;;;;;;8.30;7.50;;;12.50;99.90;;;;;;5030329;28;20049;-63
2021/08/11 02:00:13;;;;;;;8.50;7.65;;;12.50;99.90;;;;;;5015850;28;20103;-63
2021/08/11 02:02:39;;;;;;;9.60;8.68;;;12.50;99.90;;;;;;5033474;28;20031;-63
2021/08/11 02:05:08;;;;;;;9.20;7.90;;;12.50;99.90;;;;;;5020016;28;20037;-63
2021/08/11 02:07:34;;;;;;;8.38;6.93;;;12.50;99.90;;;;;;5033151;28;20043;-63
2021/08/11 02:10:00;;;;;;;8.15;7.38;;;12.50;99.90;;;;;;5033700;28;20038;-63
2021/08/11 02:12:27;;;;;;;8.13;6.68;;;12.50;99.90;;;;;;5024981;28;20037;-63
2021/08/11 02:14:52;;;;;;;9.23;6.90;;;12.40;99.90;;;;;;5017003;28;20045;-63
2021/08/11 02:17:19;;;;;;;9.38;6.10;;;12.40;99.90;;;;;;5010654;28;20045;-63
2021/08/11 02:19:46;;;;;;;7.03;6.18;;;12.40;99.90;;;;;;5007882;28;20038;-63
2021/08/11 02:22:13;;;;;;;7.03;6.40;;;12.30;99.90;;;;;;5020384;28;20048;-63
2021/08/11 02:24:39;;;;;;;6.78;6.07;;;12.30;99.90;;;;;;5018713;28;20410;-63
2021/08/11 02:27:17;;;;;;;8.88;6.82;;;12.40;99.90;;;;;;5019082;28;20796;-63
2021/08/11 02:30:02;;;;;;;7.03;6.32;;;12.40;99.90;;;;;;5008440;28;20050;-63
2021/08/11 02:32:49;;;;;;;7.07;6.47;;;12.30;99.90;;;;;;5022849;28;20049;-63
2021/08/11 02:35:23;;;;;;;7.40;6.70;;;12.30;99.90;;;;;;5040179;28;20041;-63
2021/08/11 02:37:59;;;;;;;9.00;8.10;;;12.30;99.90;;;;;;5016184;28;20042;-63
2021/08/11 02:40:38;;;;;;;8.20;7.20;;;12.30;99.90;;;;;;5006836;28;20089;-63
2021/08/11 02:43:10;;;;;;;7.57;6.85;;;12.30;99.90;;;;;;5017215;28;20087;-63
2021/08/11 02:45:39;;;;;;;7.72;7.03;;;12.20;99.90;;;;;;5030845;28;20046;-63
2021/08/11 02:48:07;;;;;;;7.63;6.85;;;12.20;99.90;;;;;;5021037;28;20041;-63
2021/08/11 02:50:34;;;;;;;7.88;6.55;;;12.10;99.90;;;;;;5038295;28;20046;-63
2021/08/11 02:53:01;;;;;;;7.03;6.22;;;12.10;99.90;;;;;;5019976;28;20095;-63
2021/08/11 02:55:27;;;;;;;7.53;6.82;;;12.10;99.90;;;;;;5016897;28;20030;-63
2021/08/11 02:57:53;;;;;;;8.82;7.93;;;12.10;99.90;;;;;;5041071;28;20043;-63
2021/08/11 03:00:20;;;;;;;9.75;8.75;;;12.10;99.90;;;;;;5017437;28;20045;-63
2021/08/11 03:02:46;;;;;;;9.38;8.27;;;12.10;99.90;;;;;;5005637;28;20633;-63
2021/08/11 03:05:12;;;;;;;11.30;8.82;;;12.10;99.90;;;;;;5011674;28;20038;-63
2021/08/11 03:07:38;;;;;;;11.82;10.38;;;12.10;99.90;;;;;;5029411;28;20088;-63
2021/08/11 03:10:05;;;;;;;10.82;9.75;;;12.10;99.90;;;;;;5022650;28;20585;-63
2021/08/11 03:12:31;;;;;;;11.88;9.75;;;12.10;99.90;;;;;;5016257;28;20033;-63
2021/08/11 03:14:58;;;;;;;13.65;10.18;;;12.10;99.90;;;;;;5016453;28;20461;-63
2021/08/11 03:17:25;;;;;;;13.98;10.30;;;12.10;99.90;;;;;;5045625;28;20105;-63
2021/08/11 03:19:51;;;;;;;11.10;9.77;;;12.10;99.90;;;;;;5013441;28;20042;-63
2021/08/11 03:22:17;;;;;;;10.02;9.05;;;12.00;99.90;;;;;;5021823;28;20486;-63
2021/08/11 03:24:43;;;;;;;10.35;9.35;;;12.00;99.90;;;;;;5018404;28;20045;-63
2021/08/11 03:27:08;;;;;;;11.05;9.60;;;11.90;99.90;;;;;;5015878;28;20465;-63
2021/08/11 03:29:34;;;;;;;11.90;10.70;;;12.00;99.90;;;;;;5035899;28;20038;-63
2021/08/11 03:32:00;;;;;;;12.52;10.82;;;11.90;99.90;;;;;;5028850;28;20056;-63
2021/08/11 03:34:26;;;;;;;12.98;11.60;;;12.00;99.90;;;;;;5022976;28;20034;-63
2021/08/11 03:36:51;;;;;;;12.90;11.55;;;11.90;99.90;;;;;;5020339;28;20070;-63
2021/08/11 03:39:17;;;;;;;11.80;10.70;;;11.90;99.90;;;;;;5042122;28;20460;-63
2021/08/11 03:41:43;;;;;;;14.02;10.55;;;11.80;99.90;;;;;;5009135;28;20111;-63
2021/08/11 03:44:08;;;;;;;13.27;11.30;;;11.90;99.90;;;;;;5008997;28;20049;-63
2021/08/11 03:46:34;;;;;;;14.18;10.65;;;11.90;99.90;;;;;;5024731;28;20042;-63
2021/08/11 03:49:00;;;;;;;12.45;11.07;;;11.90;99.90;;;;;;5023125;28;20057;-63
2021/08/11 03:51:25;;;;;;;10.90;9.93;;;11.90;99.90;;;;;;5026472;28;20087;-63
2021/08/11 03:53:51;;;;;;;13.32;11.00;;;11.90;99.90;;;;;;5037792;28;20087;-63
2021/08/11 03:56:16;;;;;;;13.63;11.38;;;11.90;99.90;;;;;;5055748;28;20031;-63
2021/08/11 03:58:42;;;;;;;11.55;10.35;;;11.90;99.90;;;;;;5020270;28;20037;-63
2021/08/11 04:01:08;;;;;;;11.95;10.68;;;12.00;99.90;;;;;;5028490;28;20038;-63
2021/08/11 04:03:34;;;;;;;13.65;12.30;;;11.90;99.90;;;;;;5013129;28;20053;-63
2021/08/11 04:05:59;;;;;;;14.35;12.02;;;11.90;99.90;;;;;;5024636;28;20063;-63
2021/08/11 04:08:25;;;;;;;13.18;10.80;;;11.90;99.90;;;;;;5021128;28;20050;-63
2021/08/11 04:10:51;;;;;;;12.23;10.52;;;11.90;99.90;;;;;;5025822;28;20038;-63
2021/08/11 04:13:18;;;;;;;11.77;10.45;;;11.90;99.90;;;;;;5026822;28;20036;-63
2021/08/11 04:15:45;;;;;;;12.38;10.85;;;11.90;99.90;;;;;;5015680;28;20362;-63
2021/08/11 04:18:11;;;;;;;13.52;11.07;;;11.80;99.90;;;;;;5019184;28;20132;-63
2021/08/11 04:20:39;;;;;;;12.07;10.85;;;11.90;99.90;;;;;;5020959;28;20072;-63
2021/08/11 04:23:05;;;;;;;12.88;11.52;;;11.90;99.90;;;;;;5050773;28;20095;-63
2021/08/11 04:25:32;;;;;;;12.75;11.45;;;11.90;99.90;;;;;;5013738;28;20129;-63
2021/08/11 04:27:57;;;;;;;12.45;10.80;;;11.90;99.90;;;;;;5030660;28;20060;-63
2021/08/11 04:30:23;;;;;;;12.15;10.95;;;11.90;99.90;;;;;;5023097;28;20394;-63
2021/08/11 04:32:49;;;;;;;11.55;10.27;;;11.90;99.90;;;;;;5015368;28;20057;-63
2021/08/11 04:35:14;;;;;;;12.55;11.15;;;11.90;99.90;;;;;;5019217;28;20038;-63
2021/08/11 04:37:40;;;;;;;14.23;11.90;;;12.00;99.90;;;;;;5011232;28;20482;-63
2021/08/11 04:40:07;;;;;;;11.98;10.00;;;12.00;99.90;;;;;;5008569;28;20064;-63
2021/08/11 04:42:33;;;;;;;12.18;10.90;;;12.10;99.90;;;;;;5010900;28;20584;-63
2021/08/11 04:45:00;;;;;;;11.88;10.73;;;12.20;99.90;;;;;;5023569;28;20048;-63
2021/08/11 04:47:26;;;;;;;12.90;11.57;;;12.20;99.90;;;;;;5036677;28;20038;-63
2021/08/11 04:49:52;;;;;;;13.10;10.75;;;12.30;99.90;;;;;;5019599;28;20658;-63
2021/08/11 04:52:17;;;;;;;14.13;11.23;;;12.40;99.90;;;;;;5019426;28;20029;-63
2021/08/11 04:54:43;;;;;;;12.00;10.80;;;12.40;99.90;;;;;;5027219;28;20455;-63
2021/08/11 04:57:09;;;;;;;13.20;11.75;;;12.50;99.90;;;;;;5027154;28;20075;-63
2021/08/11 04:59:34;;;;;;;12.77;11.38;;;12.60;99.90;;;;;;5029459;28;20037;-63
2021/08/11 05:02:06;;;;;;;13.37;11.47;;;12.70;99.90;;;;;;5038760;28;20122;-63
2021/08/11 05:04:32;;;;;;;13.07;11.60;;;12.80;99.90;;;;;;5024360;28;20318;-63
2021/08/11 05:07:05;;;;;;;13.23;11.82;;;12.90;99.90;;;;;;5031920;28;20573;-63
2021/08/11 05:09:34;;;;;;;14.63;12.27;;;13.00;99.90;;;;;;5034608;28;20032;-63
2021/08/11 05:12:00;;;;;;;14.68;12.75;;;13.10;99.90;;;;;;5041592;28;20034;-63
2021/08/11 05:14:26;;;;;;;13.70;12.30;;;13.20;99.90;;;;;;5081579;28;20127;-63
2021/08/11 05:16:52;;;;;;;13.75;12.40;;;13.30;99.90;;;;;;5095023;28;20048;-63
2021/08/11 05:19:17;;;;;;;13.35;12.05;;;13.40;99.90;;;;;;5045933;28;20098;-63
2021/08/11 05:21:43;;;;;;;16.42;12.57;;;13.50;99.90;;;;;;5029539;28;20042;-63
2021/08/11 05:24:11;;;;;;;16.77;12.60;;;13.60;99.90;;;;;;5025112;28;20238;-63
2021/08/11 05:26:37;;;;;;;13.32;12.13;;;13.60;99.90;;;;;;5009793;28;20504;-63
2021/08/11 05:29:03;;;;;;;13.05;11.85;;;13.70;99.90;;;;;;5017911;28;20045;-63
2021/08/11 05:31:29;;;;;;;15.20;12.50;;;13.70;99.90;;;;;;5016349;22;20539;-65
2021/08/11 05:33:55;;;;;;;17.08;13.20;;;13.90;99.90;;;;;;4991644;28;20523;-64
2021/08/11 05:36:21;;;;;;;14.13;12.82;;;14.10;99.90;;;;;;5008941;28;20129;-64
2021/08/11 05:38:47;;;;;;;18.05;13.35;;;14.30;99.90;;;;;;5007763;28;20458;-64
2021/08/11 05:41:12;;;;;;;15.07;13.48;;;14.40;99.90;;;;;;5007735;28;20087;-64
2021/08/11 05:43:38;;;;;;;14.40;12.65;;;14.60;99.90;;;;;;4998505;28;20148;-64
2021/08/11 05:46:06;;;;;;;14.48;12.35;;;14.70;99.90;;;;;;5007494;28;20099;-64
2021/08/11 05:48:32;;;;;;;16.23;12.20;;;14.80;99.90;;;;;;5008916;28;20050;-64
2021/08/11 05:50:57;;;;;;;12.30;11.07;;;14.80;99.90;;;;;;4990719;28;20049;-64
2021/08/11 05:53:23;;;;;;;13.57;12.02;;;14.90;99.90;;;;;;5007558;28;20026;-64
2021/08/11 05:55:50;;;;;;;13.63;12.18;;;14.90;99.90;;;;;;4989799;28;20038;-64
2021/08/11 05:58:15;;;;;;;13.13;11.75;;;14.90;99.90;;;;;;4980307;28;20441;-64
2021/08/11 06:00:41;;;;;;;18.48;12.23;;;15.00;99.90;;;;;;4991844;28;20064;-64
2021/08/11 06:03:07;;;;;;;14.38;12.82;;;15.00;99.90;;;;;;5009348;28;20034;-64
2021/08/11 06:05:34;;;;;;;14.73;11.45;;;15.00;99.90;;;;;;5008752;28;20057;-64
2021/08/11 06:07:59;;;;;;;12.68;11.45;;;15.00;99.90;;;;;;5008860;28;20038;-64
2021/08/11 06:10:25;;;;;;;11.80;10.60;;;15.10;99.90;;;;;;5008974;28;20045;-64
2021/08/11 06:12:53;;;;;;;13.55;11.60;;;15.60;99.90;;;;;;5008794;28;20034;-64
2021/08/11 06:15:19;;;;;;;12.20;10.98;;;16.20;99.90;;;;;;5007659;28;20124;-64
2021/08/11 06:17:46;;;;;;;12.90;10.60;;;17.10;99.90;;;;;;5008304;28;20459;-64
2021/08/11 06:20:14;;;;;;;16.40;9.98;;;17.90;99.90;;;;;;4992215;28;20073;-65
2021/08/11 06:22:40;;;;;;;14.82;9.70;;;18.50;99.90;;;;;;5008638;28;20045;-68
2021/08/11 06:25:06;;;;;;;15.55;10.10;;;19.70;99.90;;;;;;5008992;28;20038;-64
2021/08/11 06:27:33;;;;;;;13.20;9.80;;;20.70;99.90;;;;;;5008642;28;20053;-65
2021/08/11 06:29:58;;;;;;;12.55;10.55;;;21.40;99.90;;;;;;5008810;28;20532;-65
2021/08/11 06:32:24;;;;;;;10.60;9.60;;;22.40;99.90;;;;;;4992233;28;20491;-64
2021/08/11 06:34:50;;;;;;;11.38;9.80;;;23.30;99.90;;;;;;5000551;28;20067;-64
2021/08/11 06:37:15;;;;;;;14.40;9.55;;;24.10;99.90;;;;;;5003648;28;20103;-64
2021/08/11 06:39:41;;;;;;;11.27;9.23;;;25.00;99.60;;;;;;5005792;28;20145;-64
2021/08/11 06:42:07;;;;;;;10.40;8.93;;;25.60;97.40;;;;;;5007872;28;20095;-64
2021/08/11 06:44:32;;;;;;;11.40;9.20;;;26.20;95.50;;;;;;5003107;28;20060;-64
2021/08/11 06:46:58;;;;;;;10.10;8.20;;;26.50;95.30;;;;;;5007945;28;20494;-65
2021/08/11 06:49:24;;;;;;;8.95;8.05;;;26.80;93.20;;;;;;4995371;28;20100;-64
2021/08/11 06:51:49;;;;;;;11.00;8.70;;;26.80;92.40;;;;;;5009041;28;20034;-64
2021/08/11 06:54:15;;;;;;;9.40;8.50;;;26.80;91.60;;;;;;5004388;28;20045;-64
2021/08/11 06:56:41;;;;;;;8.77;7.97;;;26.90;90.70;;;;;;5004524;28;20423;-64
2021/08/11 06:59:07;;;;;;;9.20;8.23;;;26.60;91.50;;;;;;5007484;28;20042;-64
2021/08/11 07:01:33;;;;;;;9.80;8.27;;;25.90;92.40;;;;;;5006219;28;20107;-64
2021/08/11 07:03:59;;;;;;;10.30;8.65;;;25.30;93.20;;;;;;5006305;28;20149;-64
2021/08/11 07:06:24;;;;;;;9.95;8.80;;;24.80;93.20;;;;;;5008165;28;20049;-64
2021/08/11 07:08:50;;;;;;;9.60;8.15;;;24.70;94.40;;;;;;5006792;28;20038;-64
2021/08/11 07:11:16;;;;;;;8.50;7.70;;;25.00;94.80;;;;;;4987254;28;20056;-64
2021/08/11 07:13:41;;;;;;;8.80;7.90;;;25.70;93.30;;;;;;5007628;28;20038;-64
2021/08/11 07:16:07;;;;;;;8.45;7.50;;;26.50;93.00;;;;;;5005046;28;20041;-64
2021/08/11 07:18:33;;;;;;;8.60;6.93;;;27.30;91.80;;;;;;5009438;28;20045;-64
2021/08/11 07:20:59;;;;;;;7.90;7.03;;;27.80;90.60;;;;;;5009325;28;20046;-64
2021/08/11 07:23:25;;;;;;;7.15;6.47;;;28.20;87.80;;;;;;5008977;28;20158;-64
2021/08/11 07:25:51;;;;;;;7.88;6.68;;;28.40;87.80;;;;;;5006825;28;20051;-64
2021/08/11 07:28:16;;;;;;;6.82;5.90;;;28.80;85.00;;;;;;5025412;28;20113;-64
2021/08/11 07:30:44;;;;;;;7.93;6.00;;;29.30;83.40;;;;;;5009616;28;20109;-64
2021/08/11 07:33:09;;;;;;;7.50;6.03;;;29.80;80.00;;;;;;5006917;28;20149;-64
2021/08/11 07:35:39;;;;;;;6.63;5.18;;;30.30;79.60;;;;;;5007635;28;20546;-64
2021/08/11 07:38:06;;;;;;;10.13;5.70;;;30.70;76.60;;;;;;5010708;28;20050;-64
2021/08/11 07:40:34;;;;;;;8.73;5.55;;;30.70;73.90;;;;;;5010515;28;20046;-64
2021/08/11 07:43:03;;;;;;;8.50;6.00;;;30.90;71.30;;;;;;4992092;28;20041;-64
2021/08/11 07:45:30;;;;;;;6.13;5.53;;;30.50;68.50;;;;;;5007071;28;20528;-64
2021/08/11 07:47:57;;;;;;;6.55;5.85;;;29.70;71.70;;;;;;5009170;28;20397;-64
2021/08/11 07:50:26;;;;;;;7.13;5.72;;;29.00;72.50;;;;;;5011102;28;20045;-64
2021/08/11 07:52:51;;;;;;;6.05;5.22;;;28.60;74.20;;;;;;5008883;28;20044;-64
2021/08/11 07:55:18;;;;;;;5.22;4.72;;;28.40;73.90;;;;;;5011129;28;20038;-64
2021/08/11 07:57:44;;;;;;;6.18;4.72;;;28.50;74.70;;;;;;4998197;28;20046;-64
2021/08/11 08:00:11;;;;;;;9.50;4.88;;;28.60;70.30;;;;;;4987743;28;20438;-64
2021/08/11 08:02:37;;;;;;;5.75;4.32;;;28.30;73.70;;;;;;5008121;28;20134;-64
2021/08/11 08:05:03;;;;;;;5.68;4.75;;;27.60;77.20;;;;;;5009730;28;20113;-64
2021/08/11 08:07:30;;;;;;;5.60;4.93;;;26.90;77.30;;;;;;5010159;28;20073;-64
2021/08/11 08:09:56;;;;;;;6.05;4.75;;;26.40;80.20;;;;;;5008025;28;20102;-64
2021/08/11 08:12:22;;;;;;;8.85;4.55;;;25.70;83.90;;;;;;5009905;28;20030;-64
2021/08/11 08:14:47;;;;;;;6.68;3.97;;;25.30;87.80;;;;;;5010125;28;20391;-64
2021/08/11 08:17:13;;;;;;;5.43;3.75;;;25.20;90.00;;;;;;5010693;28;20041;-64
2021/08/11 08:19:39;;;;;;;5.18;4.63;;;24.90;90.10;;;;;;5009700;28;20117;-64
2021/08/11 08:22:04;;;;;;;7.20;4.60;;;24.70;90.30;;;;;;5009769;28;20443;-65
2021/08/11 08:24:32;;;;;;;5.68;4.03;;;24.30;90.60;;;;;;4988642;28;20080;-65
2021/08/11 08:27:01;;;;;;;7.80;4.60;;;24.20;91.70;;;;;;5002040;28;20047;-64
2021/08/11 08:29:27;;;;;;;5.68;4.65;;;24.10;92.20;;;;;;5008503;28;20041;-64
2021/08/11 08:31:52;;;;;;;4.82;4.15;;;23.80;92.80;;;;;;5008647;28;20057;-64
2021/08/11 08:34:18;;;;;;;6.05;4.18;;;23.80;93.30;;;;;;5007979;28;20042;-65
2021/08/11 08:36:44;;;;;;;6.72;4.60;;;23.80;92.60;;;;;;4985867;28;20129;-64
2021/08/11 08:39:09;;;;;;;5.88;4.35;;;23.80;92.10;;;;;;5003359;28;20463;-65
2021/08/11 08:41:36;;;;;;;7.25;4.65;;;23.60;93.80;;;;;;5010436;28;20086;-64
2021/08/11 08:44:03;;;;;;;6.80;4.63;;;23.50;93.50;;;;;;4979567;28;20058;-65
2021/08/11 08:46:29;;;;;;;6.25;4.20;;;23.50;93.70;;;;;;5003291;28;20090;-65
2021/08/11 08:48:56;;;;;;;5.35;4.53;;;23.40;94.30;;;;;;5010089;28;20399;-64
2021/08/11 08:51:23;;;;;;;5.15;4.20;;;23.20;94.30;;;;;;5012955;28;20069;-65
2021/08/11 08:53:49;;;;;;;6.93;3.90;;;23.10;95.30;;;;;;5029978;28;20496;-65
2021/08/11 08:56:16;;;;;;;4.72;4.22;;;23.10;95.60;;;;;;5017268;28;20046;-65
2021/08/11 08:58:42;;;;;;;5.97;4.65;;;23.10;95.80;;;;;;5010030;28;20118;-65
2021/08/11 09:01:08;;;;;;;7.07;4.78;;;22.90;95.90;;;;;;5008566;28;20130;-65
2021/08/11 09:03:35;;;;;;;6.32;4.63;;;22.90;96.40;;;;;;4991469;28;20064;-65
2021/08/11 09:06:01;;;;;;;5.50;4.63;;;22.90;97.10;;;;;;5007459;28;20038;-65
2021/08/11 09:08:27;;;;;;;5.53;3.90;;;22.80;96.60;;;;;;5008277;28;20440;-65
2021/08/11 09:10:53;;;;;;;5.88;4.25;;;22.80;96.00;;;;;;5007829;28;20042;-65
2021/08/11 09:13:21;;;;;;;6.22;4.68;;;22.80;96.40;;;;;;5006925;28;20065;-65
2021/08/11 09:15:52;;;;;;;6.45;4.20;;;22.80;96.10;;;;;;5008486;28;20490;-66
2021/08/11 09:18:23;;;;;;;5.65;4.15;;;22.80;96.20;;;;;;5007519;28;20685;-65
2021/08/11 09:21:02;;;;;;;6.70;4.10;;;22.80;96.60;;;;;;4991257;28;20030;-65
2021/08/11 09:23:37;;;;;;;4.82;3.88;;;22.60;96.40;;;;;;4991964;28;20038;-65
2021/08/11 09:26:05;;;;;;;5.15;4.43;;;22.70;96.50;;;;;;5007414;28;20046;-65
2021/08/11 09:28:33;;;;;;;5.75;3.55;;;22.80;95.60;;;;;;5009000;28;20048;-66
2021/08/11 09:30:59;;;;;;;4.60;3.97;;;22.90;94.90;;;;;;5007993;28;20065;-66
2021/08/11 09:33:25;;;;;;;6.13;3.92;;;23.00;96.70;;;;;;4991512;28;20061;-66
2021/08/11 09:35:53;;;;;;;5.45;3.88;;;23.10;95.90;;;;;;5008903;28;20049;-66
2021/08/11 09:38:18;;;;;;;7.60;4.45;;;23.20;95.80;;;;;;4991455;28;20407;-66
2021/08/11 09:40:46;;;;;;;7.25;4.50;;;23.30;96.40;;;;;;5008406;28;20045;-66
2021/08/11 09:43:16;;;;;;;5.30;4.20;;;23.50;96.00;;;;;;5009239;28;20807;-66
2021/08/11 09:45:50;;;;;;;7.38;4.93;;;23.70;95.00;;;;;;5007537;28;20038;-66
2021/08/11 09:48:20;;;;;;;7.40;4.45;;;23.70;95.70;;;;;;4998069;28;20050;-66
2021/08/11 09:50:53;;;;;;;6.45;4.47;;;23.70;95.20;;;;;;4973347;28;20046;-66
2021/08/11 09:53:34;;;;;;;4.93;4.18;;;23.70;95.60;;;;;;4991617;28;20476;-66
2021/08/11 09:56:07;;;;;;;5.27;3.90;;;23.60;95.30;;;;;;5009145;28;20038;-66
2021/08/11 09:58:42;;;;;;;6.80;4.07;;;23.60;95.30;;;;;;5009143;28;20398;-66
2021/08/11 10:01:14;;;;;;;7.88;3.97;;;23.60;95.50;;;;;;5026624;28;20086;-66
2021/08/11 10:04:06;;;;;;;4.85;3.80;;;23.50;96.10;;;;;;5015167;28;20038;-66
2021/08/11 10:06:32;;;;;;;5.43;3.90;;;23.70;96.40;;;;;;4989445;28;20125;-66
2021/08/11 10:09:36;;;;;;;4.70;3.97;;;23.80;95.50;;;;;;4989506;28;20477;-66
2021/08/11 10:12:02;;;;;;;7.88;3.97;;;23.90;96.40;;;;;;5009102;28;20044;-66
2021/08/11 10:14:35;;;;;;;5.13;3.80;;;23.80;95.00;;;;;;5008860;28;20369;-66
2021/08/11 10:17:04;;;;;;;4.68;3.47;;;23.70;96.20;;;;;;5009020;28;20081;-67
2021/08/11 10:19:32;;;;;;;7.90;3.92;;;23.60;94.40;;;;;;5007653;28;20037;-66
2021/08/11 10:22:13;;;;;;;4.72;3.40;;;23.60;94.50;;;;;;5008557;28;20046;-66
2021/08/11 10:24:39;;;;;;;6.53;3.83;;;23.50;95.00;;;;;;5008071;28;20538;-66
2021/08/11 10:27:07;;;;;;;5.93;3.60;;;23.40;95.00;;;;;;4990989;28;20081;-66
2021/08/11 10:29:35;;;;;;;5.25;3.45;;;23.50;94.70;;;;;;5008778;28;20038;-66
2021/08/11 10:32:02;;;;;;;6.07;3.30;;;23.50;95.20;;;;;;4990847;28;20153;-66
2021/08/11 10:34:31;;;;;;;5.60;3.88;;;23.50;94.80;;;;;;4990608;28;20053;-66
2021/08/11 10:36:57;;;;;;;4.80;3.53;;;23.50;94.40;;;;;;5008412;28;20045;-66
2021/08/11 10:39:23;;;;;;;5.35;3.72;;;23.50;95.40;;;;;;4991139;28;20049;-66
2021/08/11 10:41:49;;;;;;;6.72;3.88;;;23.40;95.40;;;;;;5008411;28;21144;-66
2021/08/11 10:44:20;;;;;;;5.25;3.88;;;23.40;95.80;;;;;;5003257;28;20035;-66
2021/08/11 10:46:55;;;;;;;5.35;3.80;;;23.50;95.10;;;;;;4998578;28;20586;-66
2021/08/11 10:49:22;;;;;;;5.07;3.45;;;23.60;94.70;;;;;;5003247;28;20574;-66
2021/08/11 10:51:50;;;;;;;5.30;4.00;;;23.70;95.20;;;;;;5011300;28;20046;-66
2021/08/11 10:54:16;;;;;;;4.40;3.90;;;23.70;95.00;;;;;;5007996;28;20042;-66
2021/08/11 10:56:50;;;;;;;6.28;3.72;;;23.70;95.20;;;;;;5007652;28;20056;-66
2021/08/11 10:59:21;;;;;;;5.95;3.60;;;23.70;94.60;;;;;;5006885;28;20038;-66
2021/08/11 11:01:48;;;;;;;6.88;3.60;;;23.70;95.80;;;;;;5007972;28;20034;-65
2021/08/11 11:04:46;;;;;;;8.25;4.32;;;23.70;95.80;;;;;;5007451;28;20054;-64
2021/08/11 11:07:16;;;;;;;5.78;3.78;;;23.80;95.50;;;;;;5003629;28;20486;-64
2021/08/11 11:09:44;;;;;;;6.53;3.63;;;23.90;96.10;;;;;;5005606;28;20038;-64
2021/08/11 11:12:19;;;;;;;6.25;4.05;;;23.90;96.40;;;;;;5007051;28;20058;-64
2021/08/11 11:15:03;;;;;;;5.05;3.45;;;24.10;95.10;;;;;;5003555;28;20395;-64
2021/08/11 11:17:34;;;;;;;5.00;4.00;;;24.10;96.90;;;;;;5000354;28;20125;-65
2021/08/11 11:20:03;;;;;;;;;;;24.30;95.30;;;;;;4991117;28;20041;-65
2021/08/11 11:22:39;;;;;;;6.05;3.47;;;24.30;95.40;;;;;;5007283;28;20485;-65
2021/08/11 11:25:07;;;;;;;4.63;3.30;;;24.40;94.60;;;;;;5010758;28;20367;-65
2021/08/11 11:27:42;;;;;;;5.78;3.53;;;24.30;94.00;;;;;;5005536;28;20068;-65
2021/08/11 11:30:15;;;;;;;6.55;3.50;;;24.40;96.80;;;;;;4995840;28;20046;-65
2021/08/11 11:32:41;;;;;;;5.13;3.42;;;24.40;94.10;;;;;;5006645;28;20061;-64
2021/08/11 11:35:15;;;;;;;4.82;3.30;;;24.40;93.70;;;;;;5005718;28;20034;-65
2021/08/11 11:37:41;;;;;;;4.70;3.25;;;24.40;94.50;;;;;;5006181;28;20046;-65
2021/08/11 11:40:08;;;;;;;4.78;3.35;;;24.40;94.70;;;;;;5007404;28;20037;-65
2021/08/11 11:42:35;;;;;;;3.60;3.08;;;24.50;94.00;;;;;;5006550;28;20041;-64
2021/08/11 11:45:02;;;;;;;6.00;3.00;;;24.50;93.70;;;;;;4995041;28;20116;-65
2021/08/11 11:47:45;;;;;;;4.00;2.70;;;24.50;93.30;;;;;;4998894;28;20512;-65
2021/08/11 11:52:49;;;;;;;7.40;3.20;;;24.50;94.20;;;;;;5007546;28;20042;-65
2021/08/11 11:55:28;;;;;;;5.45;3.90;;;24.60;93.50;;;;;;5007825;28;20384;-65
2021/08/11 11:57:54;;;;;;;5.20;3.10;;;24.70;93.70;;;;;;5007502;28;20046;-65
2021/08/11 12:00:21;;;;;;;4.72;3.38;;;24.70;93.80;;;;;;5006270;28;20041;-65
2021/08/11 12:02:53;;;;;;;4.85;3.28;;;24.80;92.90;;;;;;5008077;28;20041;-65
2021/08/11 12:05:19;;;;;;;3.95;3.55;;;24.80;93.90;;;;;;5011029;28;20048;-65
2021/08/11 12:07:45;;;;;;;6.72;3.50;;;24.90;93.70;;;;;;5010702;28;20041;-65
2021/08/11 12:10:25;;;;;;;4.50;3.30;;;25.00;93.40;;;;;;5009688;28;20132;-65
2021/08/11 12:13:00;;;;;;;6.57;2.95;;;25.10;92.20;;;;;;5008387;28;21740;-65
2021/08/11 12:15:29;;;;;;;4.03;3.33;;;25.10;93.00;;;;;;4985327;28;20037;-65
2021/08/11 12:17:57;;;;;;;5.47;3.38;;;25.20;92.10;;;;;;5002938;28;20831;-65
2021/08/11 12:20:31;;;;;;;5.05;3.22;;;25.20;92.90;;;;;;5008578;28;20394;-65
2021/08/11 12:22:59;;;;;;;4.35;3.33;;;25.20;92.70;;;;;;5010443;28;20045;-68
2021/08/11 12:25:27;;;;;;;3.25;2.95;;;25.20;93.10;;;;;;5010685;28;20041;-68
2021/08/11 12:28:10;;;;;;;4.95;2.70;;;25.10;93.20;;;;;;5010083;28;20042;-68
2021/08/11 12:30:38;;;;;;;3.65;2.60;;;25.30;92.70;;;;;;4991117;28;20441;-68
2021/08/11 12:33:05;;;;;;;5.43;3.33;;;25.60;92.20;;;;;;5004436;28;20058;-69
2021/08/11 12:35:31;;;;;;;5.07;2.92;;;25.70;91.80;;;;;;5009099;28;20076;-69
2021/08/11 12:37:57;;;;;;;5.25;2.92;;;25.60;91.70;;;;;;5010572;28;20049;-68
2021/08/11 12:40:27;;;;;;;4.88;2.88;;;25.50;92.10;;;;;;5010283;28;20038;-68
2021/08/11 12:42:55;;;;;;;3.25;2.85;;;25.50;92.20;;;;;;5010264;28;20129;-69
2021/08/11 12:45:20;;;;;;;2.85;2.65;;;25.60;92.80;;;;;;5009892;28;20045;-68
2021/08/11 12:47:46;;;;;;;3.00;2.30;;;25.50;92.10;;;;;;4984229;28;20048;-69